createdAt,value
2018-11-25T00:00:36.964Z,3.92
2018-11-25T00:03:07.549Z,3.97
2018-11-25T00:05:38.343Z,3.96
2018-11-25T00:08:08.788Z,3.99
2018-11-25T00:10:39.218Z,4.02
2018-11-25T00:13:09.767Z,4.04
2018-11-25T00:15:40.344Z,4.06
2018-11-25T00:18:10.870Z,4.09
2018-11-25T00:20:41.486Z,4.12
2018-11-25T00:23:12.187Z,4.15
2018-11-25T00:25:42.768Z,4.18
2018-11-25T00:28:13.220Z,4.23
2018-11-25T00:30:43.856Z,4.28
2018-11-25T00:33:14.363Z,4.30
2018-11-25T00:35:44.880Z,4.33
2018-11-25T00:38:15.339Z,4.36
2018-11-25T00:40:46.003Z,4.37
2018-11-25T00:43:16.599Z,4.40
2018-11-25T00:45:47.051Z,4.40
2018-11-25T00:48:17.630Z,4.41
2018-11-25T00:50:48.184Z,4.44
2018-11-25T00:53:18.775Z,4.47
2018-11-25T00:55:49.234Z,4.49
2018-11-25T00:58:19.643Z,4.49
2018-11-25T01:00:50.069Z,4.49
2018-11-25T01:03:20.747Z,4.49
2018-11-25T01:05:51.274Z,4.49
2018-11-25T01:08:21.809Z,4.49
2018-11-25T01:10:52.194Z,4.48
2018-11-25T01:13:22.920Z,4.47
2018-11-25T01:15:53.491Z,4.47
2018-11-25T01:18:24.158Z,4.45
2018-11-25T01:20:54.749Z,4.43
2018-11-25T01:23:25.253Z,4.42
2018-11-25T01:25:55.852Z,4.40
2018-11-25T01:28:26.609Z,4.34
2018-11-25T01:30:57.304Z,4.33
2018-11-25T01:33:27.805Z,4.31
2018-11-25T01:35:58.292Z,4.28
2018-11-25T01:38:28.733Z,4.22
2018-11-25T01:40:59.311Z,4.13
2018-11-25T01:43:30.137Z,4.07
2018-11-25T01:46:00.801Z,4.02
2018-11-25T01:48:31.495Z,3.98
2018-11-25T01:51:02.010Z,3.95
2018-11-25T01:53:32.418Z,3.89
2018-11-25T01:56:03.073Z,3.78
2018-11-25T01:58:33.584Z,3.74
2018-11-25T02:01:04.137Z,3.68
2018-11-25T02:03:34.858Z,3.61
2018-11-25T02:06:05.457Z,3.61
2018-11-25T02:08:35.997Z,3.57
2018-11-25T02:11:06.741Z,3.55
2018-11-25T02:13:37.227Z,3.60
2018-11-25T02:16:07.809Z,3.56
2018-11-25T02:18:38.325Z,3.47
2018-11-25T02:21:08.673Z,3.45
2018-11-25T02:23:39.114Z,3.52
2018-11-25T02:26:09.850Z,3.52
2018-11-25T02:28:40.457Z,3.59
2018-11-25T02:31:10.875Z,3.60
2018-11-25T02:33:41.501Z,3.61
2018-11-25T02:36:12.003Z,3.64
2018-11-25T02:38:42.681Z,3.64
2018-11-25T02:41:13.312Z,3.66
2018-11-25T02:43:43.907Z,3.65
2018-11-25T02:46:14.335Z,3.64
2018-11-25T02:48:45.077Z,3.62
2018-11-25T02:51:15.607Z,3.62
2018-11-25T02:53:46.137Z,3.60
2018-11-25T02:56:16.613Z,3.62
2018-11-25T02:58:47.233Z,3.60
2018-11-25T03:01:17.739Z,3.57
2018-11-25T03:03:48.257Z,3.58
2018-11-25T03:06:18.818Z,3.60
2018-11-25T03:08:49.056Z,3.57
2018-11-25T03:11:19.561Z,3.54
2018-11-25T03:13:50.001Z,3.54
2018-11-25T03:16:26.982Z,3.49
2018-11-25T03:18:57.373Z,3.41
2018-11-25T03:21:28.032Z,3.39
2018-11-25T03:23:58.607Z,3.35
2018-11-25T03:26:29.111Z,3.32
2018-11-25T03:28:59.619Z,3.33
2018-11-25T03:31:30.137Z,3.30
2018-11-25T03:34:00.632Z,3.23
2018-11-25T03:36:31.150Z,3.25
2018-11-25T03:39:01.627Z,3.23
2018-11-25T03:41:32.380Z,3.19
2018-11-25T03:44:02.846Z,3.19
2018-11-25T03:46:33.353Z,3.21
2018-11-25T03:49:04.184Z,3.23
2018-11-25T03:51:34.851Z,3.22
2018-11-25T03:54:05.772Z,3.19
2018-11-25T03:56:36.561Z,3.16
2018-11-25T03:59:07.239Z,3.16
2018-11-25T04:01:37.883Z,3.18
2018-11-25T04:04:08.535Z,3.14
2018-11-25T04:06:39.167Z,3.11
2018-11-25T04:09:10.045Z,3.08
2018-11-25T04:11:43.861Z,3.07
2018-11-25T04:14:14.373Z,3.09
2018-11-25T04:16:44.986Z,3.10
2018-11-25T04:19:16.556Z,3.03
2018-11-25T04:21:47.046Z,2.98
2018-11-25T04:24:17.882Z,3.01
2018-11-25T04:26:48.467Z,3.05
2018-11-25T04:29:18.940Z,3.02
2018-11-25T04:31:49.554Z,3.05
2018-11-25T04:34:20.085Z,3.09
2018-11-25T04:36:50.574Z,3.07
2018-11-25T04:39:20.951Z,3.04
2018-11-25T04:41:51.565Z,3.08
2018-11-25T04:44:23.276Z,3.08
2018-11-25T04:46:52.842Z,3.06
2018-11-25T04:49:31.729Z,3.06
2018-11-25T04:52:02.186Z,3.02
2018-11-25T04:54:32.767Z,3.03
2018-11-25T04:57:03.428Z,3.06
2018-11-25T04:59:33.977Z,3.08
2018-11-25T05:02:04.544Z,3.00
2018-11-25T05:04:35.104Z,2.99
2018-11-25T05:07:05.936Z,3.00
2018-11-25T05:09:39.588Z,3.03
2018-11-25T05:12:10.058Z,3.05
2018-11-25T05:14:40.528Z,3.08
2018-11-25T05:17:11.049Z,3.05
2018-11-25T05:19:49.536Z,3.02
2018-11-25T05:22:20.536Z,3.02
2018-11-25T05:24:51.234Z,3.00
2018-11-25T05:27:21.858Z,2.99
2018-11-25T05:29:52.479Z,2.98
2018-11-25T05:32:22.776Z,2.96
2018-11-25T05:34:53.324Z,2.98
2018-11-25T05:37:23.760Z,2.97
2018-11-25T05:39:54.245Z,2.95
2018-11-25T05:42:24.692Z,3.01
2018-11-25T05:44:55.172Z,3.04
2018-11-25T05:47:25.902Z,3.08
2018-11-25T05:49:56.276Z,3.06
2018-11-25T05:52:26.884Z,3.00
2018-11-25T05:54:57.313Z,2.91
2018-11-25T05:57:27.801Z,2.86
2018-11-25T05:59:58.187Z,2.82
2018-11-25T06:02:28.717Z,2.77
2018-11-25T06:04:59.163Z,2.77
2018-11-25T06:07:29.706Z,2.79
2018-11-25T06:10:00.186Z,2.77
2018-11-25T06:12:31.016Z,2.73
2018-11-25T06:15:01.601Z,2.69
2018-11-25T06:17:32.173Z,2.68
2018-11-25T06:20:02.751Z,2.70
2018-11-25T06:22:33.293Z,2.69
2018-11-25T06:25:03.978Z,2.75
2018-11-25T06:27:38.266Z,2.79
2018-11-25T06:30:06.187Z,2.73
2018-11-25T06:32:36.602Z,2.69
2018-11-25T06:35:08.418Z,2.70
2018-11-25T06:37:38.973Z,2.66
2018-11-25T06:40:12.052Z,2.61
2018-11-25T06:42:42.989Z,2.59
2018-11-25T06:45:15.771Z,2.59
2018-11-25T06:47:46.519Z,2.58
2018-11-25T06:50:17.134Z,2.57
2018-11-25T06:52:47.713Z,2.54
2018-11-25T06:55:18.426Z,2.50
2018-11-25T06:57:48.982Z,2.50
2018-11-25T07:00:21.505Z,2.59
2018-11-25T07:02:52.291Z,2.57
2018-11-25T07:05:22.781Z,2.51
2018-11-25T07:07:53.287Z,2.50
2018-11-25T07:10:24.307Z,2.51
2018-11-25T07:12:55.555Z,2.45
2018-11-25T07:15:26.185Z,2.43
2018-11-25T07:17:56.876Z,2.41
2018-11-25T07:20:27.370Z,2.38
2018-11-25T07:23:00.685Z,2.41
2018-11-25T07:25:31.458Z,2.45
2018-11-25T07:28:17.609Z,2.43
2018-11-25T07:30:34.223Z,2.48
2018-11-25T07:33:04.807Z,2.51
2018-11-25T07:35:35.310Z,2.51
2018-11-25T07:38:06.630Z,2.56
2018-11-25T07:40:37.160Z,2.52
2018-11-25T07:43:07.961Z,2.54
2018-11-25T07:45:38.458Z,2.55
2018-11-25T07:48:09.476Z,2.57
2018-11-25T07:50:40.117Z,2.51
2018-11-25T07:53:10.573Z,2.54
2018-11-25T07:55:41.710Z,2.56
2018-11-25T07:58:12.430Z,2.60
2018-11-25T08:00:43.376Z,2.65
2018-11-25T08:03:14.254Z,2.69
2018-11-25T08:05:45.257Z,2.74
2018-11-25T08:08:15.981Z,2.82
2018-11-25T08:10:46.641Z,2.89
2018-11-25T08:13:17.388Z,2.85
2018-11-25T08:15:48.105Z,2.86
2018-11-25T08:18:18.978Z,2.96
2018-11-25T08:20:49.530Z,3.06
2018-11-25T08:23:19.947Z,3.16
2018-11-25T08:25:50.486Z,3.15
2018-11-25T08:28:21.281Z,3.18
2018-11-25T08:30:51.938Z,3.16
2018-11-25T08:33:22.779Z,3.19
2018-11-25T08:35:53.460Z,3.20
2018-11-25T08:38:24.172Z,3.17
2018-11-25T08:40:54.906Z,3.22
2018-11-25T08:43:27.961Z,3.32
2018-11-25T08:45:58.523Z,3.34
2018-11-25T08:48:29.421Z,3.40
2018-11-25T08:51:00.053Z,3.45
2018-11-25T08:53:30.830Z,3.49
2018-11-25T08:56:01.357Z,3.56
2018-11-25T08:58:32.584Z,3.60
2018-11-25T09:01:03.771Z,3.71
2018-11-25T09:03:35.295Z,3.74
2018-11-25T09:06:05.661Z,3.79
2018-11-25T09:08:36.851Z,3.72
2018-11-25T09:11:07.694Z,3.82
2018-11-25T09:13:38.444Z,3.95
2018-11-25T09:16:09.657Z,3.84
2018-11-25T09:18:40.216Z,3.74
2018-11-25T09:21:10.952Z,3.78
2018-11-25T09:23:41.691Z,3.90
2018-11-25T09:26:12.406Z,4.04
2018-11-25T09:28:43.194Z,4.05
2018-11-25T09:31:13.770Z,4.13
2018-11-25T09:33:44.404Z,4.13
2018-11-25T09:36:14.901Z,4.12
2018-11-25T09:38:45.558Z,4.12
2018-11-25T09:41:16.146Z,4.29
2018-11-25T09:43:46.914Z,4.44
2018-11-25T09:46:17.662Z,4.44
2018-11-25T09:48:54.502Z,4.50
2018-11-25T09:51:24.907Z,4.56
2018-11-25T09:53:55.417Z,4.53
2018-11-25T09:56:27.157Z,4.65
2018-11-25T09:58:57.742Z,4.62
2018-11-25T10:01:28.718Z,4.73
2018-11-25T10:03:59.317Z,4.75
2018-11-25T10:06:29.904Z,4.84
2018-11-25T10:09:00.528Z,5.01
2018-11-25T10:11:31.067Z,5.22
2018-11-25T10:14:02.026Z,5.26
2018-11-25T10:16:32.772Z,5.31
2018-11-25T10:19:03.502Z,5.40
2018-11-25T10:21:34.621Z,5.41
2018-11-25T10:24:05.325Z,5.35
2018-11-25T10:26:36.226Z,5.36
2018-11-25T10:29:06.924Z,5.49
2018-11-25T10:31:37.544Z,5.33
2018-11-25T10:34:08.514Z,5.35
2018-11-25T10:36:42.204Z,5.45
2018-11-25T10:39:12.866Z,5.55
2018-11-25T10:41:43.543Z,5.62
2018-11-25T10:44:14.263Z,5.60
2018-11-25T10:46:45.124Z,5.78
2018-11-25T10:49:15.857Z,5.65
2018-11-25T10:51:46.376Z,5.74
2018-11-25T10:54:17.320Z,5.88
2018-11-25T10:56:47.847Z,5.99
2018-11-25T10:59:18.551Z,6.01
2018-11-25T11:01:55.873Z,5.86
2018-11-25T11:04:31.686Z,5.80
2018-11-25T11:07:07.475Z,5.84
2018-11-25T11:09:38.127Z,5.87
2018-11-25T11:12:08.603Z,6.03
2018-11-25T11:14:39.324Z,6.20
2018-11-25T11:17:09.991Z,6.28
2018-11-25T11:19:40.579Z,6.41
2018-11-25T11:22:11.189Z,6.49
2018-11-25T11:24:41.775Z,6.51
2018-11-25T11:27:12.277Z,6.42
2018-11-25T11:29:43.020Z,6.53
2018-11-25T11:32:13.590Z,6.53
2018-11-25T11:34:44.369Z,6.47
2018-11-25T11:37:15.154Z,6.83
2018-11-25T11:39:46.137Z,6.98
2018-11-25T11:42:16.945Z,7.04
2018-11-25T11:44:48.541Z,7.16
2018-11-25T11:47:19.485Z,7.22
2018-11-25T11:49:50.323Z,7.33
2018-11-25T11:52:21.090Z,7.41
2018-11-25T11:54:51.918Z,7.36
2018-11-25T11:57:22.889Z,7.31
2018-11-25T11:59:53.485Z,7.43
2018-11-25T12:02:27.604Z,7.51
2018-11-25T12:05:03.001Z,7.48
2018-11-25T12:07:33.927Z,7.52
2018-11-25T12:10:04.601Z,7.54
2018-11-25T12:12:35.102Z,7.49
2018-11-25T12:15:10.171Z,7.48
2018-11-25T12:17:40.850Z,7.41
2018-11-25T12:20:11.794Z,7.33
2018-11-25T12:22:43.515Z,7.34
2018-11-25T12:25:15.331Z,7.30
2018-11-25T12:27:45.956Z,7.13
2018-11-25T12:30:17.009Z,7.15
2018-11-25T12:32:48.613Z,7.22
2018-11-25T12:35:19.346Z,7.16
2018-11-25T12:37:49.903Z,7.24
2018-11-25T12:40:21.642Z,7.33
2018-11-25T12:42:54.109Z,7.19
2018-11-25T12:45:24.790Z,7.16
2018-11-25T12:47:55.142Z,7.13
2018-11-25T12:50:26.517Z,7.06
2018-11-25T12:52:57.187Z,7.08
2018-11-25T12:55:28.126Z,6.98
2018-11-25T12:57:58.929Z,6.90
2018-11-25T13:00:39.395Z,6.93
2018-11-25T13:03:12.362Z,6.70
2018-11-25T13:05:46.297Z,6.69
2018-11-25T13:08:15.084Z,6.65
2018-11-25T13:10:46.118Z,6.65
2018-11-25T13:13:17.236Z,6.51
2018-11-25T13:15:47.994Z,6.41
2018-11-25T13:18:18.611Z,6.46
2018-11-25T13:20:49.712Z,6.48
2018-11-25T13:23:20.258Z,6.49
2018-11-25T13:25:51.001Z,6.41
2018-11-25T13:28:21.918Z,6.33
2018-11-25T13:30:52.718Z,6.30
2018-11-25T13:33:23.654Z,6.19
2018-11-25T13:35:54.893Z,6.13
2018-11-25T13:38:25.664Z,6.11
2018-11-25T13:40:56.510Z,6.07
2018-11-25T13:43:27.031Z,6.11
2018-11-25T13:45:57.402Z,6.13
2018-11-25T13:48:28.380Z,6.03
2018-11-25T13:51:06.000Z,5.89
2018-11-25T13:53:37.012Z,5.84
2018-11-25T13:56:08.258Z,5.81
2018-11-25T13:58:39.236Z,5.89
2018-11-25T14:01:09.998Z,5.92
2018-11-25T14:03:42.224Z,6.02
2018-11-25T14:06:14.283Z,6.16
2018-11-25T14:08:47.090Z,6.25
2018-11-25T14:11:17.624Z,6.25
2018-11-25T14:13:48.131Z,6.21
2018-11-25T14:16:21.476Z,6.12
2018-11-25T14:18:51.991Z,6.02
2018-11-25T14:21:22.734Z,5.97
2018-11-25T14:23:53.442Z,5.95
2018-11-25T14:26:26.129Z,5.90
2018-11-25T14:28:56.497Z,5.86
2018-11-25T14:31:26.910Z,5.87
2018-11-25T14:33:57.470Z,5.96
2018-11-25T14:36:27.951Z,5.98
2018-11-25T14:38:58.528Z,5.98
2018-11-25T14:41:29.037Z,5.98
2018-11-25T14:43:59.573Z,5.92
2018-11-25T14:46:30.064Z,5.89
2018-11-25T14:49:00.653Z,5.86
2018-11-25T14:51:31.158Z,5.75
2018-11-25T14:54:03.342Z,5.72
2018-11-25T14:56:33.926Z,5.72
2018-11-25T14:59:04.316Z,5.70
2018-11-25T15:01:34.719Z,5.64
2018-11-25T15:04:05.766Z,5.55
2018-11-25T15:06:36.220Z,5.50
2018-11-25T15:09:09.845Z,5.46
2018-11-25T15:11:40.664Z,5.48
2018-11-25T15:14:11.226Z,5.44
2018-11-25T15:16:41.777Z,5.44
2018-11-25T15:19:12.732Z,5.43
2018-11-25T15:21:43.470Z,5.40
2018-11-25T15:24:14.009Z,5.39
2018-11-25T15:26:44.627Z,5.33
2018-11-25T15:29:15.121Z,5.28
2018-11-25T15:31:45.525Z,5.24
2018-11-25T15:34:15.961Z,5.25
2018-11-25T15:36:46.555Z,5.25
2018-11-25T15:39:16.932Z,5.26
2018-11-25T15:41:47.529Z,5.27
2018-11-25T15:44:18.052Z,5.30
2018-11-25T15:46:48.561Z,5.31
2018-11-25T15:49:19.050Z,5.34
2018-11-25T15:51:49.524Z,5.32
2018-11-25T15:54:20.031Z,5.33
2018-11-25T15:56:50.544Z,5.31
2018-11-25T15:59:21.299Z,5.34
2018-11-25T16:01:51.896Z,5.35
2018-11-25T16:04:22.567Z,5.37
2018-11-25T16:06:53.313Z,5.37
2018-11-25T16:09:23.891Z,5.38
2018-11-25T16:11:54.644Z,5.41
2018-11-25T16:14:25.235Z,5.43
2018-11-25T16:16:55.924Z,5.47
2018-11-25T16:19:26.399Z,5.48
2018-11-25T16:21:57.130Z,5.51
2018-11-25T16:24:27.933Z,5.55
2018-11-25T16:26:58.553Z,5.56
2018-11-25T16:29:29.266Z,5.58
2018-11-25T16:31:59.967Z,5.58
2018-11-25T16:34:30.659Z,5.59
2018-11-25T16:37:01.128Z,5.62
2018-11-25T16:39:31.583Z,5.63
2018-11-25T16:42:02.389Z,5.65
2018-11-25T16:44:32.779Z,5.65
2018-11-25T16:47:03.122Z,5.68
2018-11-25T16:49:33.545Z,5.68
2018-11-25T16:52:03.843Z,5.69
2018-11-25T16:54:34.276Z,5.69
2018-11-25T16:57:09.951Z,5.67
2018-11-25T16:59:40.564Z,5.60
2018-11-25T17:02:11.046Z,5.56
2018-11-25T17:04:42.231Z,5.55
2018-11-25T17:07:12.706Z,5.55
2018-11-25T17:09:57.561Z,5.57
2018-11-25T17:12:28.587Z,5.54
2018-11-25T17:14:59.133Z,5.54
2018-11-25T17:17:29.668Z,5.53
2018-11-25T17:20:16.381Z,5.52
2018-11-25T17:23:06.955Z,5.49
2018-11-25T17:25:37.332Z,5.50
2018-11-25T17:28:08.417Z,5.52
2018-11-25T17:30:39.121Z,5.50
2018-11-25T17:33:09.647Z,5.50
2018-11-25T17:35:40.378Z,5.49
2018-11-25T17:38:11.160Z,5.49
2018-11-25T17:40:41.990Z,5.47
2018-11-25T17:43:14.420Z,5.46
2018-11-25T17:45:45.013Z,5.47
2018-11-25T17:48:15.613Z,5.47
2018-11-25T17:50:46.085Z,5.47
2018-11-25T17:53:20.612Z,5.47
2018-11-25T17:55:47.411Z,5.47
2018-11-25T17:58:18.304Z,5.48
2018-11-25T18:01:06.875Z,5.49
2018-11-25T18:03:38.498Z,5.48
2018-11-25T18:06:09.092Z,5.49
2018-11-25T18:08:39.940Z,5.47
2018-11-25T18:11:10.593Z,5.48
2018-11-25T18:13:42.174Z,5.48
2018-11-25T18:16:13.062Z,5.47
2018-11-25T18:18:47.298Z,5.48
2018-11-25T18:21:25.846Z,5.47
2018-11-25T18:23:56.507Z,5.49
2018-11-25T18:26:27.180Z,5.47
2018-11-25T18:28:58.005Z,5.45
2018-11-25T18:31:28.874Z,5.44
2018-11-25T18:33:59.549Z,5.44
2018-11-25T18:36:30.448Z,5.43
2018-11-25T18:39:01.244Z,5.43
2018-11-25T18:41:32.168Z,5.44
2018-11-25T18:44:02.754Z,5.44
2018-11-25T18:46:37.394Z,5.46
2018-11-25T18:49:10.300Z,5.47
2018-11-25T18:51:41.020Z,5.45
2018-11-25T18:54:11.666Z,5.46
2018-11-25T18:56:42.148Z,5.47
2018-11-25T18:59:12.930Z,5.46
2018-11-25T19:01:49.058Z,5.46
2018-11-25T19:04:19.781Z,5.47
2018-11-25T19:06:50.332Z,5.46
2018-11-25T19:09:20.861Z,5.46
2018-11-25T19:11:51.329Z,5.46
2018-11-25T19:14:21.842Z,5.45
2018-11-25T19:16:52.608Z,5.43
2018-11-25T19:19:23.290Z,5.41
2018-11-25T19:21:53.924Z,5.41
2018-11-25T19:24:24.706Z,5.42
2018-11-25T19:26:58.551Z,5.42
2018-11-25T19:29:29.286Z,5.41
2018-11-25T19:31:59.952Z,5.41
2018-11-25T19:34:30.442Z,5.41
2018-11-25T19:37:01.100Z,5.41
2018-11-25T19:39:31.603Z,5.42
2018-11-25T19:42:02.516Z,5.44
2018-11-25T19:44:33.054Z,5.43
2018-11-25T19:47:03.667Z,5.43
2018-11-25T19:49:34.990Z,5.40
2018-11-25T19:52:05.735Z,5.41
2018-11-25T19:54:36.229Z,5.38
2018-11-25T19:57:11.460Z,5.37
2018-11-25T19:59:42.745Z,5.35
2018-11-25T20:02:13.282Z,5.36
2018-11-25T20:04:44.265Z,5.35
2018-11-25T20:07:15.920Z,5.32
2018-11-25T20:09:46.563Z,5.32
2018-11-25T20:12:17.680Z,5.31
2018-11-25T20:14:48.318Z,5.31
2018-11-25T20:17:24.008Z,5.31
2018-11-25T20:19:54.936Z,5.29
2018-11-25T20:22:26.417Z,5.29
2018-11-25T20:24:57.082Z,5.28
2018-11-25T20:27:33.096Z,5.29
2018-11-25T20:30:05.410Z,5.28
2018-11-25T20:32:39.752Z,5.27
2018-11-25T20:35:10.223Z,5.27
2018-11-25T20:37:45.873Z,5.26
2018-11-25T20:40:16.413Z,5.25
2018-11-25T20:42:47.081Z,5.26
2018-11-25T20:45:23.916Z,5.25
2018-11-25T20:47:55.258Z,5.27
2018-11-25T20:50:26.649Z,5.25
2018-11-25T20:53:01.871Z,5.25
2018-11-25T20:55:32.640Z,5.23
2018-11-25T20:58:03.272Z,5.23
2018-11-25T21:00:35.459Z,5.22
2018-11-25T21:03:07.705Z,5.22
2018-11-25T21:05:37.745Z,5.19
2018-11-25T21:08:08.311Z,5.19
2018-11-25T21:10:38.693Z,5.20
2018-11-25T21:13:09.078Z,5.16
2018-11-25T21:15:39.189Z,5.14
2018-11-25T21:18:09.238Z,5.14
2018-11-25T21:20:39.287Z,5.11
2018-11-25T21:23:10.521Z,5.11
2018-11-25T21:25:40.579Z,5.10
2018-11-25T21:28:10.669Z,5.10
2018-11-25T21:30:40.723Z,5.09
2018-11-25T21:33:14.188Z,5.08
2018-11-25T21:35:44.175Z,5.08
2018-11-25T21:38:14.363Z,5.07
2018-11-25T21:40:44.345Z,5.04
2018-11-25T21:43:14.337Z,5.03
2018-11-25T21:45:44.600Z,5.02
2018-11-25T21:48:14.620Z,5.00
2018-11-25T21:50:44.682Z,4.99
2018-11-25T21:53:14.779Z,4.98
2018-11-25T21:55:44.786Z,4.96
2018-11-25T21:58:15.095Z,4.94
2018-11-25T22:00:46.194Z,4.91
2018-11-25T22:03:16.194Z,4.90
2018-11-25T22:05:46.214Z,4.89
2018-11-25T22:08:16.277Z,4.88
2018-11-25T22:10:46.258Z,4.87
2018-11-25T22:13:16.263Z,4.86
2018-11-25T22:15:46.416Z,4.87
2018-11-25T22:18:16.400Z,4.86
2018-11-25T22:20:46.370Z,4.85
2018-11-25T22:23:16.380Z,4.85
2018-11-25T22:25:46.378Z,4.84
2018-11-25T22:28:16.385Z,4.84
2018-11-25T22:30:46.389Z,4.85
2018-11-25T22:33:16.388Z,4.84
2018-11-25T22:35:46.431Z,4.85
2018-11-25T22:38:16.415Z,4.87
2018-11-25T22:40:46.442Z,4.88
2018-11-25T22:43:16.564Z,4.83
2018-11-25T22:45:46.604Z,4.84
2018-11-25T22:48:16.652Z,4.85
2018-11-25T22:50:46.696Z,4.82
2018-11-25T22:53:16.754Z,4.81
2018-11-25T22:55:46.716Z,4.80
2018-11-25T22:58:17.055Z,4.80
2018-11-25T23:00:48.212Z,4.82
2018-11-25T23:03:18.308Z,4.80
2018-11-25T23:05:59.307Z,4.78
2018-11-25T23:08:29.336Z,4.79
2018-11-25T23:10:59.336Z,4.78
2018-11-25T23:13:29.724Z,4.77
2018-11-25T23:15:59.714Z,4.75
2018-11-25T23:18:30.097Z,4.76
2018-11-25T23:21:06.718Z,4.74
2018-11-25T23:23:37.280Z,4.77
2018-11-25T23:26:07.290Z,4.76
2018-11-25T23:28:37.271Z,4.76
2018-11-25T23:31:07.276Z,4.74
2018-11-25T23:33:37.306Z,4.69
2018-11-25T23:36:07.334Z,4.67
2018-11-25T23:38:37.316Z,4.66
2018-11-25T23:41:07.288Z,4.63
2018-11-25T23:43:37.337Z,4.56
2018-11-25T23:46:07.365Z,4.48
2018-11-25T23:48:37.492Z,4.38
2018-11-25T23:51:07.522Z,4.34
2018-11-25T23:53:37.750Z,4.34
2018-11-25T23:56:07.728Z,4.41
2018-11-25T23:58:37.765Z,4.44
